createdAt,value
2018-06-08T00:00:43.021Z,58.27
2018-06-08T00:01:43.004Z,57.98
2018-06-08T00:02:42.984Z,58.08
2018-06-08T00:03:42.971Z,57.89
2018-06-08T00:04:42.953Z,57.89
2018-06-08T00:05:42.941Z,57.79
2018-06-08T00:06:42.923Z,58.56
2018-06-08T00:07:42.913Z,58.17
2018-06-08T00:08:42.896Z,58.27
2018-06-08T00:09:42.883Z,57.98
2018-06-08T00:10:42.863Z,58.56
2018-06-08T00:11:42.846Z,57.98
2018-06-08T00:12:42.832Z,57.89
2018-06-08T00:13:42.819Z,58.94
2018-06-08T00:14:42.800Z,58.94
2018-06-08T00:15:42.787Z,58.56
2018-06-08T00:16:42.770Z,58.56
2018-06-08T00:17:42.755Z,58.56
2018-06-08T00:18:42.738Z,58.56
2018-06-08T00:19:42.725Z,58.56
2018-06-08T00:20:42.709Z,58.94
2018-06-08T00:21:42.693Z,58.65
2018-06-08T00:22:42.679Z,59.04
2018-06-08T00:23:42.663Z,59.04
2018-06-08T00:24:42.648Z,59.23
2018-06-08T00:25:42.633Z,59.13
2018-06-08T00:26:42.618Z,59.61
2018-06-08T00:27:42.600Z,59.90
2018-06-08T00:28:42.587Z,60.00
2018-06-08T00:29:42.567Z,59.04
2018-06-08T00:30:42.554Z,59.71
2018-06-08T00:31:42.546Z,59.23
2018-06-08T00:32:42.522Z,59.52
2018-06-08T00:33:42.511Z,59.87
2018-06-08T00:34:42.490Z,59.87
2018-06-08T00:35:42.474Z,60.06
2018-06-08T00:36:42.460Z,59.68
2018-06-08T00:37:42.445Z,60.06
2018-06-08T00:38:42.428Z,60.35
2018-06-08T00:39:42.413Z,59.58
2018-06-08T00:40:42.400Z,59.77
2018-06-08T00:41:42.383Z,59.97
2018-06-08T00:42:42.367Z,60.44
2018-06-08T00:43:42.351Z,60.64
2018-06-08T00:44:42.335Z,60.64
2018-06-08T00:45:42.317Z,60.54
2018-06-08T00:46:42.303Z,60.93
2018-06-08T00:47:42.288Z,60.83
2018-06-08T00:48:42.275Z,60.93
2018-06-08T00:49:42.260Z,61.02
2018-06-08T00:50:42.244Z,61.02
2018-06-08T00:51:42.228Z,60.93
2018-06-08T00:52:42.209Z,61.31
2018-06-08T00:53:42.193Z,61.79
2018-06-08T00:54:42.177Z,62.46
2018-06-08T00:55:42.170Z,62.17
2018-06-08T00:56:42.150Z,62.36
2018-06-08T00:57:42.130Z,62.81
2018-06-08T00:58:42.117Z,62.55
2018-06-08T00:59:42.099Z,62.43
2018-06-08T01:00:42.084Z,62.33
2018-06-08T01:01:42.067Z,62.26
2018-06-08T01:02:42.052Z,62.17
2018-06-08T01:03:42.037Z,61.94
2018-06-08T01:04:42.020Z,62.14
2018-06-08T01:05:42.005Z,62.90
2018-06-08T01:06:41.988Z,62.71
2018-06-08T01:07:41.970Z,62.33
2018-06-08T01:08:41.957Z,62.90
2018-06-08T01:09:41.940Z,63.00
2018-06-08T01:10:41.924Z,62.33
2018-06-08T01:11:41.908Z,63.00
2018-06-08T01:12:41.893Z,62.90
2018-06-08T01:13:41.875Z,62.71
2018-06-08T01:14:41.860Z,62.90
2018-06-08T01:15:41.848Z,62.90
2018-06-08T01:16:41.829Z,63.39
2018-06-08T01:17:41.812Z,63.10
2018-06-08T01:18:41.798Z,62.62
2018-06-08T01:19:41.778Z,63.48
2018-06-08T01:20:41.764Z,63.19
2018-06-08T01:21:41.748Z,63.57
2018-06-08T01:22:41.782Z,63.76
2018-06-08T01:23:41.717Z,63.57
2018-06-08T01:24:41.701Z,64.12
2018-06-08T01:25:41.685Z,64.34
2018-06-08T01:26:41.667Z,64.63
2018-06-08T01:27:41.657Z,64.22
2018-06-08T01:28:41.634Z,64.40
2018-06-08T01:29:41.637Z,64.31
2018-06-08T01:30:41.603Z,64.59
2018-06-08T01:31:41.588Z,64.31
2018-06-08T01:32:41.570Z,64.12
2018-06-08T01:33:41.557Z,64.69
2018-06-08T01:34:41.539Z,64.88
2018-06-08T01:35:41.521Z,65.08
2018-06-08T01:36:41.506Z,65.08
2018-06-08T01:37:41.519Z,65.36
2018-06-08T01:38:41.472Z,65.17
2018-06-08T01:39:41.456Z,65.08
2018-06-08T01:40:41.440Z,64.79
2018-06-08T01:41:41.424Z,65.26
2018-06-08T01:42:41.406Z,64.98
2018-06-08T01:43:41.393Z,65.45
2018-06-08T01:44:41.376Z,64.88
2018-06-08T01:45:41.358Z,65.55
2018-06-08T01:46:41.344Z,65.26
2018-06-08T01:47:41.325Z,65.55
2018-06-08T01:48:41.309Z,65.74
2018-06-08T01:49:41.293Z,65.65
2018-06-08T01:50:41.281Z,64.88
2018-06-08T01:51:41.258Z,64.88
2018-06-08T01:52:41.243Z,65.08
2018-06-08T01:53:41.225Z,65.36
2018-06-08T01:54:41.208Z,65.55
2018-06-08T01:55:41.193Z,65.55
2018-06-08T01:56:41.173Z,65.94
2018-06-08T01:57:41.162Z,65.84
2018-06-08T01:58:41.143Z,65.45
2018-06-08T01:59:41.135Z,66.22
2018-06-08T02:00:41.108Z,65.90
2018-06-08T02:01:41.093Z,65.90
2018-06-08T02:02:41.077Z,66.28
2018-06-08T02:03:41.110Z,66.09
2018-06-08T02:04:41.043Z,66.38
2018-06-08T02:05:41.029Z,66.47
2018-06-08T02:06:41.016Z,66.76
2018-06-08T02:07:40.994Z,67.14
2018-06-08T02:08:40.977Z,66.86
2018-06-08T02:09:40.965Z,66.47
2018-06-08T02:10:40.944Z,66.96
2018-06-08T02:11:40.927Z,67.14
2018-06-08T02:12:40.909Z,67.14
2018-06-08T02:13:40.896Z,67.14
2018-06-08T02:14:40.876Z,67.05
2018-06-08T02:15:40.859Z,67.14
2018-06-08T02:16:40.842Z,67.05
2018-06-08T02:17:40.824Z,66.76
2018-06-08T02:18:40.813Z,67.05
2018-06-08T02:19:40.790Z,67.24
2018-06-08T02:20:40.777Z,67.24
2018-06-08T02:21:40.758Z,67.43
2018-06-08T02:22:40.773Z,67.43
2018-06-08T02:23:40.724Z,66.96
2018-06-08T02:24:40.707Z,66.86
2018-06-08T02:25:40.691Z,67.14
2018-06-08T02:26:40.674Z,67.34
2018-06-08T02:27:40.656Z,67.72
2018-06-08T02:28:40.647Z,68.10
2018-06-08T02:29:40.626Z,67.91
2018-06-08T02:30:40.605Z,67.69
2018-06-08T02:31:40.593Z,67.43
2018-06-08T02:32:40.580Z,68.16
2018-06-08T02:33:40.558Z,68.01
2018-06-08T02:34:40.540Z,67.91
2018-06-08T02:35:40.521Z,68.20
2018-06-08T02:36:40.509Z,68.26
2018-06-08T02:37:40.489Z,68.01
2018-06-08T02:38:40.471Z,68.64
2018-06-08T02:39:40.454Z,68.16
2018-06-08T02:40:40.436Z,67.91
2018-06-08T02:41:40.420Z,68.55
2018-06-08T02:42:40.409Z,68.45
2018-06-08T02:43:40.387Z,68.45
2018-06-08T02:44:40.368Z,68.64
2018-06-08T02:45:40.353Z,68.35
2018-06-08T02:46:40.332Z,68.64
2018-06-08T02:47:40.318Z,68.64
2018-06-08T02:48:40.301Z,68.64
2018-06-08T02:49:40.288Z,68.74
2018-06-08T02:50:40.266Z,69.21
2018-06-08T02:51:40.249Z,69.21
2018-06-08T02:52:40.233Z,69.21
2018-06-08T02:53:40.215Z,69.12
2018-06-08T02:54:40.200Z,69.02
2018-06-08T02:55:40.181Z,69.02
2018-06-08T02:56:40.164Z,69.21
2018-06-08T02:57:40.151Z,69.31
2018-06-08T02:58:40.179Z,69.31
2018-06-08T02:59:40.110Z,69.50
2018-06-08T03:00:40.097Z,69.70
2018-06-08T03:01:40.076Z,69.50
2018-06-08T03:02:40.065Z,69.70
2018-06-08T03:03:40.041Z,69.79
2018-06-08T03:04:40.031Z,69.50
2018-06-08T03:05:40.014Z,69.02
2018-06-08T03:06:39.998Z,69.50
2018-06-08T03:07:39.973Z,69.89
2018-06-08T03:08:39.961Z,69.89
2018-06-08T03:09:39.940Z,69.98
2018-06-08T03:10:39.922Z,70.17
2018-06-08T03:11:39.906Z,69.41
2018-06-08T03:12:39.887Z,69.89
2018-06-08T03:13:39.877Z,70.36
2018-06-08T03:14:39.854Z,70.65
2018-06-08T03:15:39.839Z,71.13
2018-06-08T03:16:39.818Z,70.56
2018-06-08T03:17:39.800Z,70.84
2018-06-08T03:18:39.782Z,70.94
2018-06-08T03:19:39.765Z,70.65
2018-06-08T03:20:39.749Z,71.13
2018-06-08T03:21:39.732Z,71.13
2018-06-08T03:22:39.714Z,71.22
2018-06-08T03:23:39.697Z,71.61
2018-06-08T03:24:39.679Z,71.22
2018-06-08T03:25:39.664Z,71.22
2018-06-08T03:26:39.645Z,72.08
2018-06-08T03:27:39.627Z,72.08
2018-06-08T03:28:39.609Z,71.99
2018-06-08T03:29:39.598Z,71.61
2018-06-08T03:30:39.575Z,71.70
2018-06-08T03:31:39.558Z,71.13
2018-06-08T03:32:39.541Z,71.61
2018-06-08T03:33:39.523Z,71.32
2018-06-08T03:34:39.506Z,70.84
2018-06-08T03:35:39.492Z,71.61
2018-06-08T03:36:39.471Z,71.42
2018-06-08T03:37:39.453Z,71.61
2018-06-08T03:38:39.440Z,71.80
2018-06-08T03:39:39.417Z,71.42
2018-06-08T03:40:39.401Z,71.80
2018-06-08T03:41:39.384Z,71.13
2018-06-08T03:42:39.364Z,71.42
2018-06-08T03:43:39.348Z,71.61
2018-06-08T03:44:39.334Z,71.51
2018-06-08T03:45:39.316Z,71.32
2018-06-08T03:46:39.298Z,71.70
2018-06-08T03:47:39.281Z,71.61
2018-06-08T03:48:39.262Z,71.22
2018-06-08T03:49:39.252Z,71.32
2018-06-08T03:50:39.226Z,71.51
2018-06-08T03:51:39.213Z,71.32
2018-06-08T03:52:39.194Z,71.42
2018-06-08T03:53:39.175Z,71.89
2018-06-08T03:54:39.159Z,72.08
2018-06-08T03:55:39.140Z,72.28
2018-06-08T03:56:39.124Z,72.75
2018-06-08T03:57:39.105Z,72.66
2018-06-08T03:58:39.086Z,72.66
2018-06-08T03:59:39.070Z,71.99
2018-06-08T04:00:39.053Z,72.66
2018-06-08T04:01:39.039Z,72.56
2018-06-08T04:02:39.017Z,71.70
2018-06-08T04:03:39.002Z,71.61
2018-06-08T04:04:38.984Z,72.18
2018-06-08T04:05:38.965Z,72.75
2018-06-08T04:06:38.948Z,72.37
2018-06-08T04:07:38.934Z,72.85
2018-06-08T04:08:38.912Z,73.14
2018-06-08T04:09:38.895Z,72.75
2018-06-08T04:10:38.883Z,72.37
2018-06-08T04:11:38.861Z,72.37
2018-06-08T04:12:38.843Z,72.75
2018-06-08T04:13:38.831Z,72.56
2018-06-08T04:14:38.809Z,72.18
2018-06-08T04:15:38.798Z,72.28
2018-06-08T04:16:38.775Z,72.85
2018-06-08T04:17:38.761Z,73.14
2018-06-08T04:18:38.749Z,72.85
2018-06-08T04:19:38.725Z,72.75
2018-06-08T04:20:38.704Z,71.93
2018-06-08T04:21:38.691Z,72.12
2018-06-08T04:22:38.672Z,72.79
2018-06-08T04:23:38.654Z,73.17
2018-06-08T04:24:38.640Z,72.41
2018-06-08T04:25:38.668Z,72.60
2018-06-08T04:26:38.602Z,72.12
2018-06-08T04:27:38.591Z,72.60
2018-06-08T04:28:38.571Z,72.60
2018-06-08T04:29:38.549Z,72.41
2018-06-08T04:30:38.541Z,72.60
2018-06-08T04:31:38.518Z,72.69
2018-06-08T04:32:38.499Z,73.17
2018-06-08T04:33:38.482Z,73.17
2018-06-08T04:34:38.467Z,73.17
2018-06-08T04:35:38.448Z,72.98
2018-06-08T04:36:38.430Z,72.88
2018-06-08T04:37:38.412Z,73.17
2018-06-08T04:38:38.397Z,72.69
2018-06-08T04:39:38.378Z,73.36
2018-06-08T04:40:38.365Z,72.88
2018-06-08T04:41:38.345Z,72.79
2018-06-08T04:42:38.332Z,73.08
2018-06-08T04:43:38.309Z,72.34
2018-06-08T04:44:38.293Z,72.92
2018-06-08T04:45:38.276Z,73.50
2018-06-08T04:46:38.271Z,73.36
2018-06-08T04:47:38.251Z,73.21
2018-06-08T04:48:38.228Z,73.21
2018-06-08T04:49:38.210Z,73.88
2018-06-08T04:53:38.142Z,72.34
2018-06-08T04:54:38.125Z,71.52
2018-06-08T04:55:38.111Z,71.11
2018-06-08T04:56:38.094Z,70.85
2018-06-08T04:57:38.073Z,70.76
2018-06-08T04:58:38.057Z,70.66
2018-06-08T04:59:38.040Z,71.04
2018-06-08T05:00:38.024Z,70.28
2018-06-08T05:01:38.007Z,69.51
2018-06-08T05:02:37.989Z,69.60
2018-06-08T05:03:37.973Z,69.89
2018-06-08T05:04:37.956Z,69.51
2018-06-08T05:05:37.941Z,69.60
2018-06-08T05:06:37.925Z,69.89
2018-06-08T05:07:37.904Z,69.07
2018-06-08T05:08:37.894Z,69.64
2018-06-08T05:09:37.893Z,69.35
2018-06-08T05:10:37.856Z,69.83
2018-06-08T05:11:37.840Z,69.35
2018-06-08T05:12:37.825Z,69.07
2018-06-08T05:13:37.807Z,70.03
2018-06-08T05:14:37.789Z,70.12
2018-06-08T05:15:37.781Z,70.41
2018-06-08T05:16:37.757Z,69.54
2018-06-08T05:17:37.741Z,69.93
2018-06-08T05:18:37.724Z,70.03
2018-06-08T05:19:37.708Z,70.60
2018-06-08T05:20:37.694Z,70.41
2018-06-08T05:21:37.674Z,69.77
2018-06-08T05:22:37.659Z,69.96
2018-06-08T05:23:37.641Z,69.20
2018-06-08T05:24:37.630Z,68.91
2018-06-08T05:25:37.608Z,69.20
2018-06-08T05:26:37.592Z,68.43
2018-06-08T05:27:37.579Z,67.41
2018-06-08T05:28:37.561Z,66.55
2018-06-08T05:29:37.548Z,65.68
2018-06-08T05:30:37.530Z,66.16
2018-06-08T05:31:37.516Z,66.74
2018-06-08T05:32:37.498Z,65.97
2018-06-08T05:33:37.480Z,65.68
2018-06-08T05:34:37.465Z,66.16
2018-06-08T05:35:37.446Z,65.88
2018-06-08T05:36:37.434Z,65.78
2018-06-08T05:37:37.421Z,66.29
2018-06-08T05:38:37.397Z,64.95
2018-06-08T05:39:37.385Z,65.33
2018-06-08T05:40:37.369Z,65.14
2018-06-08T05:41:37.355Z,65.81
2018-06-08T05:42:37.386Z,65.33
2018-06-08T05:43:37.322Z,65.33
2018-06-08T05:44:37.303Z,64.76
2018-06-08T05:45:37.293Z,64.85
2018-06-08T05:46:37.272Z,64.28
2018-06-08T05:47:37.256Z,64.02
2018-06-08T05:48:37.297Z,62.39
2018-06-08T05:49:37.226Z,62.87
2018-06-08T05:50:37.210Z,61.52
2018-06-08T05:51:37.195Z,62.13
2018-06-08T05:52:37.177Z,61.36
2018-06-08T05:53:37.168Z,61.75
2018-06-08T05:54:37.147Z,61.84
2018-06-08T05:55:37.132Z,61.84
2018-06-08T05:56:37.116Z,62.52
2018-06-08T05:57:37.100Z,62.81
2018-06-08T05:58:37.085Z,62.61
2018-06-08T05:59:37.070Z,61.97
2018-06-08T06:00:37.054Z,60.53
2018-06-08T06:01:37.043Z,59.57
2018-06-08T06:02:37.028Z,59.57
2018-06-08T06:03:37.008Z,60.05
2018-06-08T06:04:36.993Z,61.01
2018-06-08T06:05:36.980Z,60.82
2018-06-08T06:06:36.961Z,60.63
2018-06-08T06:07:36.947Z,60.94
2018-06-08T06:08:36.931Z,60.66
2018-06-08T06:09:36.923Z,60.75
2018-06-08T06:10:36.905Z,60.17
2018-06-08T06:11:36.897Z,59.50
2018-06-08T06:12:36.872Z,59.41
2018-06-08T06:13:36.862Z,58.54
2018-06-08T06:14:36.842Z,59.12
2018-06-08T06:15:36.827Z,59.22
2018-06-08T06:16:36.814Z,59.82
2018-06-08T06:17:36.799Z,58.86
2018-06-08T06:18:36.792Z,58.37
2018-06-08T06:19:36.770Z,58.28
2018-06-08T06:20:36.753Z,57.90
2018-06-08T06:21:36.737Z,56.65
2018-06-08T06:22:36.724Z,57.60
2018-06-08T06:23:36.708Z,56.58
2018-06-08T06:24:36.706Z,56.58
2018-06-08T06:25:36.680Z,57.45
2018-06-08T06:26:36.664Z,57.73
2018-06-08T06:27:36.649Z,56.67
2018-06-08T06:28:36.635Z,57.06
2018-06-08T06:29:36.622Z,57.64
2018-06-08T06:30:36.611Z,58.12
2018-06-08T06:31:36.590Z,57.92
2018-06-08T06:32:36.582Z,58.40
2018-06-08T06:33:36.565Z,58.70
2018-06-08T06:34:36.551Z,58.98
2018-06-08T06:35:36.536Z,58.79
2018-06-08T06:36:36.523Z,58.05
2018-06-08T06:37:36.504Z,58.82
2018-06-08T06:38:36.489Z,59.01
2018-06-08T06:39:36.515Z,60.17
2018-06-08T06:40:36.459Z,58.15
2018-06-08T06:41:36.448Z,57.95
2018-06-08T06:42:36.436Z,58.44
2018-06-08T06:43:36.417Z,58.37
2018-06-08T06:44:36.402Z,58.47
2018-06-08T06:45:36.406Z,58.08
2018-06-08T06:46:36.375Z,58.85
2018-06-08T06:47:36.360Z,58.37
2018-06-08T06:48:36.345Z,57.98
2018-06-08T06:49:36.333Z,57.60
2018-06-08T06:50:36.321Z,57.69
2018-06-08T06:51:36.314Z,56.76
2018-06-08T06:52:36.294Z,55.99
2018-06-08T06:53:36.279Z,56.47
2018-06-08T06:54:36.264Z,57.53
2018-06-08T06:55:36.250Z,57.34
2018-06-08T06:56:36.237Z,58.11
2018-06-08T06:57:36.224Z,57.53
2018-06-08T06:58:36.215Z,57.43
2018-06-08T06:59:36.200Z,56.79
2018-06-08T07:00:36.184Z,56.30
2018-06-08T07:01:36.172Z,57.56
2018-06-08T07:02:36.161Z,56.69
2018-06-08T07:03:36.143Z,56.24
2018-06-08T07:04:36.132Z,55.94
2018-06-08T07:05:36.119Z,54.50
2018-06-08T07:06:36.112Z,54.11
2018-06-08T07:07:36.098Z,54.21
2018-06-08T07:08:36.078Z,54.05
2018-06-08T07:09:36.064Z,54.82
2018-06-08T07:10:36.050Z,52.69
2018-06-08T07:11:36.041Z,54.05
2018-06-08T07:12:36.033Z,54.72
2018-06-08T07:13:36.012Z,56.29
2018-06-08T07:14:35.998Z,55.04
2018-06-08T07:15:35.985Z,54.07
2018-06-08T07:16:35.977Z,54.27
2018-06-08T07:17:35.960Z,55.35
2018-06-08T07:18:35.947Z,55.16
2018-06-08T07:19:35.936Z,54.19
2018-06-08T07:20:35.922Z,52.65
2018-06-08T07:21:35.915Z,52.84
2018-06-08T07:22:35.898Z,53.03
2018-06-08T07:23:35.893Z,53.74
2018-06-08T07:24:35.878Z,53.64
2018-06-08T07:25:35.863Z,51.61
2018-06-08T07:26:35.856Z,49.32
2018-06-08T07:27:35.837Z,48.74
2018-06-08T07:28:35.826Z,48.93
2018-06-08T07:29:35.812Z,48.83
2018-06-08T07:30:35.811Z,50.60
2018-06-08T07:31:35.881Z,48.76
2018-06-08T07:32:35.782Z,48.57
2018-06-08T07:33:35.765Z,45.76
2018-06-08T07:34:35.759Z,45.88
2018-06-08T07:35:35.746Z,46.84
2018-06-08T07:36:35.731Z,48.30
2018-06-08T07:37:35.727Z,45.88
2018-06-08T07:38:35.710Z,46.84
2018-06-08T07:39:35.696Z,44.62
2018-06-08T07:40:35.693Z,46.87
2018-06-08T07:41:35.678Z,46.67
2018-06-08T07:42:35.662Z,47.36
2018-06-08T07:43:35.652Z,46.87
2018-06-08T07:44:35.641Z,47.57
2018-06-08T07:45:35.628Z,46.70
2018-06-08T07:46:35.619Z,45.47
2018-06-08T07:47:35.607Z,44.40
2018-06-08T07:48:35.594Z,44.59
2018-06-08T07:49:35.587Z,42.57
2018-06-08T07:50:35.573Z,43.66
2018-06-08T07:51:35.563Z,41.38
2018-06-08T07:52:35.551Z,41.20
2018-06-08T07:53:35.548Z,40.75
2018-06-08T07:54:35.529Z,39.62
2018-06-08T07:55:35.520Z,37.45
2018-06-08T07:56:35.518Z,35.45
2018-06-08T07:57:35.498Z,33.04
2018-06-08T07:58:35.493Z,32.58
2018-06-08T07:59:35.478Z,32.04
2018-06-08T08:00:35.468Z,31.19
2018-06-08T08:01:35.461Z,28.16
2018-06-08T08:02:35.449Z,27.00
2018-06-08T08:03:35.439Z,27.02
2018-06-08T08:04:35.428Z,25.35
2018-06-08T08:05:35.419Z,25.65
2018-06-08T08:06:35.408Z,24.77
2018-06-08T08:07:35.399Z,25.37
2018-06-08T08:08:35.388Z,24.18
2018-06-08T08:09:35.381Z,23.79
2018-06-08T08:10:35.373Z,23.69
2018-06-08T08:11:35.361Z,23.51
2018-06-08T08:12:35.355Z,22.92
2018-06-08T08:13:35.347Z,21.84
2018-06-08T08:14:35.338Z,22.44
2018-06-08T08:15:35.333Z,21.36
2018-06-08T08:16:35.324Z,20.48
2018-06-08T08:17:35.319Z,21.07
2018-06-08T08:18:35.311Z,21.58
2018-06-08T08:19:35.309Z,19.60
2018-06-08T08:20:35.300Z,20.70
2018-06-08T08:21:35.297Z,21.60
2018-06-08T08:22:35.293Z,20.30
2018-06-08T08:23:35.304Z,21.75
2018-06-08T08:24:35.289Z,23.29
2018-06-08T08:25:35.276Z,23.66
2018-06-08T08:26:35.274Z,25.02
2018-06-08T08:27:35.272Z,27.06
2018-06-08T08:28:35.264Z,27.04
2018-06-08T08:29:35.259Z,28.89
2018-06-08T08:30:35.255Z,26.43
2018-06-08T08:31:35.248Z,28.57
2018-06-08T08:32:35.246Z,28.18
2018-06-08T08:33:35.239Z,27.77
2018-06-08T08:34:35.233Z,28.06
2018-06-08T08:35:35.230Z,28.16
2018-06-08T08:36:35.223Z,28.74
2018-06-08T08:37:35.219Z,28.74
2018-06-08T08:38:35.213Z,27.47
2018-06-08T08:39:35.234Z,28.92
2018-06-08T08:40:35.220Z,29.31
2018-06-08T08:41:35.197Z,30.68
2018-06-08T08:42:35.193Z,30.29
2018-06-08T08:43:35.188Z,30.96
2018-06-08T08:44:35.183Z,31.45
2018-06-08T08:45:35.210Z,31.45
2018-06-08T08:46:35.172Z,30.76
2018-06-08T08:47:35.165Z,29.98
2018-06-08T08:48:35.161Z,32.13
2018-06-08T08:49:35.153Z,31.35
2018-06-08T08:50:35.150Z,31.64
2018-06-08T08:51:35.188Z,30.57
2018-06-08T08:52:35.141Z,31.35
2018-06-08T08:53:35.136Z,31.15
2018-06-08T08:54:35.128Z,32.13
2018-06-08T08:55:35.118Z,30.66
2018-06-08T08:56:35.116Z,29.98
2018-06-08T08:57:35.112Z,29.98
2018-06-08T08:58:35.102Z,29.79
2018-06-08T08:59:35.094Z,29.79
2018-06-08T09:00:35.090Z,31.74
2018-06-08T09:01:35.084Z,31.45
2018-06-08T09:02:35.084Z,32.71
2018-06-08T09:03:35.071Z,31.35
2018-06-08T09:04:35.066Z,31.84
2018-06-08T09:05:35.060Z,29.67
2018-06-08T09:06:35.057Z,29.47
2018-06-08T09:07:35.046Z,31.72
2018-06-08T09:08:35.044Z,31.13
2018-06-08T09:09:35.044Z,29.67
2018-06-08T09:10:35.028Z,28.78
2018-06-08T09:11:35.094Z,29.17
2018-06-08T09:12:35.016Z,29.85
2018-06-08T09:13:35.010Z,30.05
2018-06-08T09:14:35.005Z,29.66
2018-06-08T09:15:34.998Z,31.60
2018-06-08T09:16:34.999Z,31.70
2018-06-08T09:17:34.983Z,32.78
2018-06-08T09:18:34.983Z,33.36
2018-06-08T09:19:34.976Z,32.78
2018-06-08T09:20:34.974Z,31.51
2018-06-08T09:21:34.962Z,31.60
2018-06-08T09:22:34.956Z,31.80
2018-06-08T09:23:34.947Z,30.83
2018-06-08T09:24:34.940Z,29.85
2018-06-08T09:25:34.940Z,29.85
2018-06-08T09:26:34.928Z,29.75
2018-06-08T09:27:34.923Z,30.05
2018-06-08T09:28:34.921Z,30.34
2018-06-08T09:29:34.924Z,30.44
2018-06-08T09:30:34.903Z,29.56
2018-06-08T09:31:34.894Z,31.12
2018-06-08T09:32:34.891Z,31.12
2018-06-08T09:33:34.890Z,28.49
2018-06-08T09:34:34.876Z,29.56
2018-06-08T09:35:34.873Z,30.44
2018-06-08T09:36:34.861Z,29.36
2018-06-08T09:37:34.856Z,28.78
2018-06-08T09:38:34.856Z,28.88
2018-06-08T09:39:34.845Z,29.27
2018-06-08T09:40:34.836Z,30.44
2018-06-08T09:41:34.830Z,31.31
2018-06-08T09:42:34.822Z,31.31
2018-06-08T09:43:34.816Z,28.78
2018-06-08T09:44:34.816Z,28.49
2018-06-08T09:45:34.804Z,27.90
2018-06-08T09:46:34.794Z,28.39
2018-06-08T09:47:34.794Z,27.80
2018-06-08T09:48:34.784Z,27.12
2018-06-08T09:49:34.779Z,27.90
2018-06-08T09:50:34.771Z,26.63
2018-06-08T09:51:34.765Z,28.97
2018-06-08T09:52:34.758Z,27.62
2018-06-08T09:53:34.750Z,27.23
2018-06-08T09:54:34.743Z,28.00
2018-06-08T09:55:34.737Z,29.56
2018-06-08T09:56:34.734Z,30.06
2018-06-08T09:57:34.727Z,27.81
2018-06-08T09:58:34.716Z,28.99
2018-06-08T09:59:34.711Z,30.16
2018-06-08T10:00:34.704Z,31.25
2018-06-08T10:01:34.699Z,30.27
2018-06-08T10:02:34.691Z,28.91
2018-06-08T10:03:34.685Z,30.47
2018-06-08T10:04:34.679Z,32.81
2018-06-08T10:05:34.672Z,30.48
2018-06-08T10:06:34.668Z,31.35
2018-06-08T10:07:34.660Z,30.87
2018-06-08T10:08:34.653Z,29.99
2018-06-08T10:09:34.653Z,30.38
2018-06-08T10:10:34.639Z,29.31
2018-06-08T10:11:34.654Z,28.92
2018-06-08T10:12:34.627Z,26.77
2018-06-08T10:13:34.621Z,28.63
2018-06-08T10:14:34.614Z,28.82
2018-06-08T10:15:34.612Z,29.50
2018-06-08T10:16:34.621Z,29.31
2018-06-08T10:17:34.596Z,30.19
2018-06-08T10:18:34.589Z,28.23
2018-06-08T10:19:34.591Z,27.26
2018-06-08T10:20:34.576Z,29.31
2018-06-08T10:21:34.571Z,28.04
2018-06-08T10:22:34.563Z,28.74
2018-06-08T10:23:34.557Z,29.42
2018-06-08T10:24:34.556Z,30.98
2018-06-08T10:25:34.545Z,28.64
2018-06-08T10:26:34.538Z,28.93
2018-06-08T10:27:34.532Z,26.49
2018-06-08T10:28:34.529Z,29.52
2018-06-08T10:29:34.525Z,30.49
2018-06-08T10:30:34.512Z,27.17
2018-06-08T10:31:34.507Z,26.39
2018-06-08T10:32:34.503Z,27.95
2018-06-08T10:33:34.497Z,28.06
2018-06-08T10:34:34.489Z,25.02
2018-06-08T10:35:34.484Z,25.71
2018-06-08T10:36:34.485Z,26.50
2018-06-08T10:37:34.478Z,27.38
2018-06-08T10:38:34.469Z,27.19
2018-06-08T10:39:34.462Z,26.60
2018-06-08T10:40:34.453Z,26.70
2018-06-08T10:41:34.448Z,27.00
2018-06-08T10:42:34.440Z,25.72
2018-06-08T10:43:34.433Z,25.82
2018-06-08T10:44:34.431Z,28.06
2018-06-08T10:45:34.423Z,25.83
2018-06-08T10:46:34.454Z,26.90
2018-06-08T10:47:34.413Z,27.78
2018-06-08T10:48:34.405Z,26.81
2018-06-08T10:49:34.401Z,28.08
2018-06-08T10:50:34.395Z,28.38
2018-06-08T10:51:34.395Z,25.63
2018-06-08T10:52:34.382Z,26.62
2018-06-08T10:53:34.376Z,25.55
2018-06-08T10:54:34.376Z,27.21
2018-06-08T10:55:34.366Z,28.09
2018-06-08T10:56:34.360Z,28.19
2018-06-08T10:57:34.362Z,27.90
2018-06-08T10:58:34.355Z,28.78
2018-06-08T10:59:34.345Z,29.07
2018-06-08T11:00:34.339Z,26.53
2018-06-08T11:01:34.332Z,23.98
2018-06-08T11:02:34.324Z,24.37
2018-06-08T11:03:34.319Z,24.55
2018-06-08T11:04:34.312Z,23.48
2018-06-08T11:05:34.306Z,23.77
2018-06-08T11:06:34.302Z,24.26
2018-06-08T11:07:34.346Z,24.26
2018-06-08T11:08:34.286Z,24.26
2018-06-08T11:09:34.280Z,24.36
2018-06-08T11:10:34.276Z,24.16
2018-06-08T11:11:34.269Z,25.93
2018-06-08T11:12:34.264Z,26.71
2018-06-08T11:13:34.257Z,26.82
2018-06-08T11:14:34.252Z,25.55
2018-06-08T11:15:34.254Z,25.65
2018-06-08T11:16:34.245Z,25.84
2018-06-08T11:17:34.248Z,25.55
2018-06-08T11:18:34.229Z,25.85
2018-06-08T11:19:34.236Z,29.08
2018-06-08T11:20:34.219Z,25.95
2018-06-08T11:21:34.219Z,26.83
2018-06-08T11:22:34.209Z,26.83
2018-06-08T11:23:34.206Z,26.34
2018-06-08T11:24:34.194Z,27.12
2018-06-08T11:25:34.188Z,26.84
2018-06-08T11:26:34.184Z,26.65
2018-06-08T11:27:34.188Z,28.12
2018-06-08T11:28:34.173Z,27.83
2018-06-08T11:29:34.166Z,24.79
2018-06-08T11:30:34.168Z,26.55
2018-06-08T11:31:34.156Z,25.87
2018-06-08T11:32:34.155Z,28.13
2018-06-08T11:33:34.147Z,26.17
2018-06-08T11:34:34.139Z,27.06
2018-06-08T11:35:34.134Z,26.76
2018-06-08T11:36:34.131Z,24.31
2018-06-08T11:37:34.125Z,24.70
2018-06-08T11:38:34.118Z,24.32
2018-06-08T11:39:34.112Z,26.78
2018-06-08T11:40:34.109Z,26.48
2018-06-08T11:41:34.108Z,26.68
2018-06-08T11:42:34.097Z,24.62
2018-06-08T11:43:34.089Z,25.50
2018-06-08T11:44:34.085Z,25.60
2018-06-08T11:45:34.078Z,25.89
2018-06-08T11:46:34.081Z,24.42
2018-06-08T11:47:34.069Z,23.94
2018-06-08T11:48:34.066Z,24.04
2018-06-08T11:49:34.064Z,23.16
2018-06-08T11:50:34.058Z,22.17
2018-06-08T11:51:34.049Z,24.15
2018-06-08T11:52:34.046Z,25.33
2018-06-08T11:53:34.042Z,24.54
2018-06-08T11:54:34.032Z,22.38
2018-06-08T11:55:34.028Z,22.77
2018-06-08T11:56:34.023Z,25.15
2018-06-08T11:57:34.020Z,22.67
2018-06-08T11:58:34.012Z,23.28
2018-06-08T11:59:34.011Z,23.28
2018-06-08T12:00:34.006Z,23.47
2018-06-08T12:01:34.001Z,23.67
2018-06-08T12:02:33.994Z,24.65
2018-06-08T12:03:33.991Z,25.44
2018-06-08T12:04:33.987Z,23.49
2018-06-08T12:05:33.988Z,22.22
2018-06-08T12:06:33.988Z,23.72
2018-06-08T12:07:33.983Z,21.56
2018-06-08T12:08:33.977Z,22.16
2018-06-08T12:09:33.970Z,22.58
2018-06-08T12:10:33.971Z,22.19
2018-06-08T12:11:33.970Z,18.06
2018-06-08T12:12:33.975Z,20.44
2018-06-08T12:13:33.963Z,20.25
2018-06-08T12:14:33.966Z,19.46
2018-06-08T12:15:33.962Z,19.77
2018-06-08T12:16:33.960Z,18.10
2018-06-08T12:17:33.955Z,18.79
2018-06-08T12:18:33.952Z,18.20
2018-06-08T12:19:33.952Z,19.68
2018-06-08T12:20:33.949Z,17.91
2018-06-08T12:21:33.949Z,17.42
2018-06-08T12:22:33.947Z,17.72
2018-06-08T12:23:33.945Z,18.31
2018-06-08T12:24:33.949Z,16.33
2018-06-08T12:25:33.947Z,18.61
2018-06-08T12:26:33.944Z,15.54
2018-06-08T12:27:33.950Z,16.63
2018-06-08T12:28:33.945Z,16.43
2018-06-08T12:29:33.946Z,17.61
2018-06-08T12:30:33.944Z,16.83
2018-06-08T12:31:33.948Z,17.43
2018-06-08T12:32:33.946Z,17.82
2018-06-08T12:33:33.944Z,18.73
2018-06-08T12:34:33.948Z,18.63
2018-06-08T12:35:33.948Z,19.41
2018-06-08T12:36:33.949Z,19.71
2018-06-08T12:37:33.950Z,19.02
2018-06-08T12:38:33.952Z,19.12
2018-06-08T12:39:33.947Z,16.64
2018-06-08T12:40:33.955Z,17.43
2018-06-08T12:41:33.952Z,17.03
2018-06-08T12:42:33.984Z,16.93
2018-06-08T12:43:33.970Z,15.94
2018-06-08T12:44:33.947Z,17.82
2018-06-08T12:45:33.949Z,16.72
2018-06-08T12:46:33.953Z,16.53
2018-06-08T12:47:33.947Z,17.51
2018-06-08T12:48:33.961Z,17.70
2018-06-08T12:49:33.951Z,16.61
2018-06-08T12:50:33.949Z,18.99
2018-06-08T12:51:33.948Z,16.71
2018-06-08T12:52:33.948Z,16.60
2018-06-08T12:53:33.953Z,17.68
2018-06-08T12:54:33.946Z,15.81
2018-06-08T12:55:33.963Z,17.39